sensor_id;sensor_type;location;lat;lon;timestamp;pressure;altitude;pressure_sealevel;temperature;humidity
2188;BME280;1100;52.014;8.540;2024-03-17T00:00:14;100928.94;;;4.17;100.00
2188;BME280;1100;52.014;8.540;2024-03-17T00:02:40;100937.63;;;4.22;100.00
2188;BME280;1100;52.014;8.540;2024-03-17T00:05:06;100932.94;;;4.23;100.00
2188;BME280;1100;52.014;8.540;2024-03-17T00:07:32;100940.75;;;4.17;100.00
2188;BME280;1100;52.014;8.540;2024-03-17T00:09:57;100939.13;;;4.16;100.00
2188;BME280;1100;52.014;8.540;2024-03-17T00:12:23;100938.38;;;4.16;100.00
2188;BME280;1100;52.014;8.540;2024-03-17T00:14:48;100942.25;;;4.15;100.00
2188;BME280;1100;52.014;8.540;2024-03-17T00:17:13;100944.94;;;4.07;100.00
2188;BME280;1100;52.014;8.540;2024-03-17T00:19:42;100942.50;;;4.02;100.00
2188;BME280;1100;52.014;8.540;2024-03-17T00:22:07;100941.34;;;4.03;100.00
2188;BME280;1100;52.014;8.540;2024-03-17T00:24:35;100934.34;;;4.09;100.00
2188;BME280;1100;52.014;8.540;2024-03-17T00:27:03;100937.56;;;4.15;100.00
2188;BME280;1100;52.014;8.540;2024-03-17T00:29:28;100935.63;;;4.19;100.00
2188;BME280;1100;52.014;8.540;2024-03-17T00:31:54;100937.63;;;4.19;100.00
2188;BME280;1100;52.014;8.540;2024-03-17T00:34:19;100934.44;;;4.17;100.00
2188;BME280;1100;52.014;8.540;2024-03-17T00:36:45;100938.69;;;4.10;100.00
2188;BME280;1100;52.014;8.540;2024-03-17T00:39:11;100939.75;;;4.02;100.00
2188;BME280;1100;52.014;8.540;2024-03-17T00:41:37;100936.91;;;3.95;100.00
2188;BME280;1100;52.014;8.540;2024-03-17T00:44:03;100925.03;;;3.87;100.00
2188;BME280;1100;52.014;8.540;2024-03-17T00:46:28;100929.66;;;3.83;100.00
2188;BME280;1100;52.014;8.540;2024-03-17T00:48:54;100927.25;;;3.78;100.00
2188;BME280;1100;52.014;8.540;2024-03-17T00:51:19;100928.38;;;3.73;100.00
2188;BME280;1100;52.014;8.540;2024-03-17T00:53:45;100918.84;;;3.67;100.00
2188;BME280;1100;52.014;8.540;2024-03-17T00:56:10;100923.44;;;3.59;100.00
2188;BME280;1100;52.014;8.540;2024-03-17T00:58:35;100924.13;;;3.52;100.00
2188;BME280;1100;52.014;8.540;2024-03-17T01:01:01;100920.91;;;3.46;100.00
2188;BME280;1100;52.014;8.540;2024-03-17T01:03:26;100914.16;;;3.40;100.00
2188;BME280;1100;52.014;8.540;2024-03-17T01:05:53;100921.53;;;3.36;100.00
2188;BME280;1100;52.014;8.540;2024-03-17T01:08:19;100910.06;;;3.30;100.00
2188;BME280;1100;52.014;8.540;2024-03-17T01:10:45;100914.81;;;3.33;100.00
2188;BME280;1100;52.014;8.540;2024-03-17T01:13:14;100912.16;;;3.41;100.00
2188;BME280;1100;52.014;8.540;2024-03-17T01:15:40;100914.25;;;3.47;100.00
2188;BME280;1100;52.014;8.540;2024-03-17T01:18:06;100913.13;;;3.52;100.00
2188;BME280;1100;52.014;8.540;2024-03-17T01:20:32;100907.69;;;3.56;100.00
2188;BME280;1100;52.014;8.540;2024-03-17T01:22:58;100908.06;;;3.54;100.00
2188;BME280;1100;52.014;8.540;2024-03-17T01:25:24;100903.72;;;3.53;100.00
2188;BME280;1100;52.014;8.540;2024-03-17T01:27:51;100904.16;;;3.55;100.00
2188;BME280;1100;52.014;8.540;2024-03-17T01:30:16;100902.13;;;3.52;100.00
2188;BME280;1100;52.014;8.540;2024-03-17T01:32:42;100904.44;;;3.50;100.00
2188;BME280;1100;52.014;8.540;2024-03-17T01:35:08;100899.66;;;3.43;100.00
2188;BME280;1100;52.014;8.540;2024-03-17T01:37:33;100907.03;;;3.39;100.00
2188;BME280;1100;52.014;8.540;2024-03-17T01:39:58;100896.41;;;3.38;100.00
2188;BME280;1100;52.014;8.540;2024-03-17T01:42:24;100894.84;;;3.36;100.00
2188;BME280;1100;52.014;8.540;2024-03-17T01:44:49;100885.03;;;3.35;100.00
2188;BME280;1100;52.014;8.540;2024-03-17T01:47:17;100885.03;;;3.35;100.00
2188;BME280;1100;52.014;8.540;2024-03-17T01:49:47;100885.03;;;3.35;100.00
2188;BME280;1100;52.014;8.540;2024-03-17T01:52:14;100871.66;;;3.34;100.00
2188;BME280;1100;52.014;8.540;2024-03-17T01:54:40;100881.78;;;3.30;100.00
2188;BME280;1100;52.014;8.540;2024-03-17T01:57:07;100875.91;;;3.31;100.00
2188;BME280;1100;52.014;8.540;2024-03-17T01:59:32;100875.16;;;3.34;100.00
2188;BME280;1100;52.014;8.540;2024-03-17T02:01:58;100876.78;;;3.35;100.00
2188;BME280;1100;52.014;8.540;2024-03-17T02:04:24;100867.28;;;3.33;100.00
2188;BME280;1100;52.014;8.540;2024-03-17T02:06:51;100860.59;;;3.30;100.00
2188;BME280;1100;52.014;8.540;2024-03-17T02:09:17;100867.25;;;3.29;100.00
2188;BME280;1100;52.014;8.540;2024-03-17T02:11:43;100864.72;;;3.17;100.00
2188;BME280;1100;52.014;8.540;2024-03-17T02:14:09;100866.56;;;3.09;100.00
2188;BME280;1100;52.014;8.540;2024-03-17T02:16:34;100857.81;;;3.03;100.00
2188;BME280;1100;52.014;8.540;2024-03-17T02:18:59;100861.66;;;2.98;100.00
2188;BME280;1100;52.014;8.540;2024-03-17T02:21:25;100857.28;;;2.94;100.00
2188;BME280;1100;52.014;8.540;2024-03-17T02:23:54;100848.63;;;2.92;100.00
2188;BME280;1100;52.014;8.540;2024-03-17T02:26:20;100854.06;;;2.88;100.00
2188;BME280;1100;52.014;8.540;2024-03-17T02:28:47;100857.09;;;2.83;100.00
2188;BME280;1100;52.014;8.540;2024-03-17T02:31:14;100859.81;;;2.79;100.00
2188;BME280;1100;52.014;8.540;2024-03-17T02:33:41;100860.91;;;2.74;100.00
2188;BME280;1100;52.014;8.540;2024-03-17T02:36:06;100859.75;;;2.76;100.00
2188;BME280;1100;52.014;8.540;2024-03-17T02:38:33;100858.94;;;2.75;100.00
2188;BME280;1100;52.014;8.540;2024-03-17T02:41:17;100860.91;;;2.74;100.00
2188;BME280;1100;52.014;8.540;2024-03-17T02:43:42;100856.91;;;2.72;100.00
2188;BME280;1100;52.014;8.540;2024-03-17T02:46:13;100867.06;;;2.68;100.00
2188;BME280;1100;52.014;8.540;2024-03-17T02:48:42;100866.25;;;2.67;100.00
2188;BME280;1100;52.014;8.540;2024-03-17T02:51:16;100856.50;;;2.70;100.00
2188;BME280;1100;52.014;8.540;2024-03-17T02:53:43;100862.38;;;2.68;100.00
2188;BME280;1100;52.014;8.540;2024-03-17T02:56:10;100867.06;;;2.68;100.00
2188;BME280;1100;52.014;8.540;2024-03-17T02:58:36;100862.28;;;2.65;100.00
2188;BME280;1100;52.014;8.540;2024-03-17T03:01:06;100860.22;;;2.58;100.00
2188;BME280;1100;52.014;8.540;2024-03-17T03:03:32;100862.16;;;2.57;100.00
2188;BME280;1100;52.014;8.540;2024-03-17T03:05:58;100858.56;;;2.53;100.00
2188;BME280;1100;52.014;8.540;2024-03-17T03:08:26;100862.94;;;2.58;100.00
2188;BME280;1100;52.014;8.540;2024-03-17T03:10:51;100857.84;;;2.56;100.00
2188;BME280;1100;52.014;8.540;2024-03-17T03:13:16;100858.56;;;2.53;100.00
2188;BME280;1100;52.014;8.540;2024-03-17T03:15:41;100855.38;;;2.51;100.00
2188;BME280;1100;52.014;8.540;2024-03-17T03:18:07;100855.34;;;2.47;100.00
2188;BME280;1100;52.014;8.540;2024-03-17T03:20:32;100856.47;;;2.46;100.00
2188;BME280;1100;52.014;8.540;2024-03-17T03:22:58;100856.09;;;2.48;100.00
2188;BME280;1100;52.014;8.540;2024-03-17T03:25:23;100860.75;;;2.44;100.00
2188;BME280;1100;52.014;8.540;2024-03-17T03:27:48;100851.06;;;2.50;100.00
2188;BME280;1100;52.014;8.540;2024-03-17T03:30:14;100839.81;;;2.59;100.00
2188;BME280;1100;52.014;8.540;2024-03-17T03:32:41;100843.00;;;2.61;100.00
2188;BME280;1100;52.014;8.540;2024-03-17T03:35:07;100839.06;;;2.58;100.00
2188;BME280;1100;52.014;8.540;2024-03-17T03:37:33;100847.34;;;2.62;100.00
2188;BME280;1100;52.014;8.540;2024-03-17T03:39:58;100848.56;;;2.65;100.00
2188;BME280;1100;52.014;8.540;2024-03-17T03:42:24;100843.00;;;2.61;100.00
2188;BME280;1100;52.014;8.540;2024-03-17T03:44:49;100842.56;;;2.59;100.00
2188;BME280;1100;52.014;8.540;2024-03-17T03:47:15;100843.25;;;2.52;100.00
2188;BME280;1100;52.014;8.540;2024-03-17T03:49:40;100854.25;;;2.52;100.00
2188;BME280;1100;52.014;8.540;2024-03-17T03:52:06;100854.25;;;2.52;100.00
2188;BME280;1100;52.014;8.540;2024-03-17T03:54:31;100857.34;;;2.51;100.00
2188;BME280;1100;52.014;8.540;2024-03-17T03:56:56;100856.19;;;2.52;100.00
2188;BME280;1100;52.014;8.540;2024-03-17T03:59:21;100858.13;;;2.51;100.00
2188;BME280;1100;52.014;8.540;2024-03-17T04:01:47;100858.13;;;2.51;100.00
2188;BME280;1100;52.014;8.540;2024-03-17T04:04:16;100854.97;;;2.49;100.00
2188;BME280;1100;52.014;8.540;2024-03-17T04:06:41;100864.69;;;2.46;100.00
2188;BME280;1100;52.014;8.540;2024-03-17T04:09:06;100862.69;;;2.43;100.00
2188;BME280;1100;52.014;8.540;2024-03-17T04:11:33;100864.59;;;2.39;100.00
2188;BME280;1100;52.014;8.540;2024-03-17T04:13:59;100860.53;;;2.33;100.00
2188;BME280;1100;52.014;8.540;2024-03-17T04:16:26;100864.03;;;2.30;100.00
2188;BME280;1100;52.014;8.540;2024-03-17T04:18:52;100869.50;;;2.30;100.00
2188;BME280;1100;52.014;8.540;2024-03-17T04:21:17;100859.69;;;2.29;100.00
2188;BME280;1100;52.014;8.540;2024-03-17T04:23:43;100855.72;;;2.26;100.00
2188;BME280;1100;52.014;8.540;2024-03-17T04:26:09;100856.06;;;2.24;100.00
2188;BME280;1100;52.014;8.540;2024-03-17T04:28:34;100857.25;;;2.23;100.00
2188;BME280;1100;52.014;8.540;2024-03-17T04:31:05;100859.19;;;2.23;100.00
2188;BME280;1100;52.014;8.540;2024-03-17T04:33:32;100855.28;;;2.24;100.00
2188;BME280;1100;52.014;8.540;2024-03-17T04:35:57;100850.19;;;2.22;100.00
2188;BME280;1100;52.014;8.540;2024-03-17T04:38:22;100856.38;;;2.19;100.00
2188;BME280;1100;52.014;8.540;2024-03-17T04:40:48;100860.63;;;2.17;100.00
2188;BME280;1100;52.014;8.540;2024-03-17T04:43:13;100859.03;;;2.16;100.00
2188;BME280;1100;52.014;8.540;2024-03-17T04:45:41;100861.06;;;2.19;100.00
2188;BME280;1100;52.014;8.540;2024-03-17T04:48:07;100866.56;;;2.19;100.00
2188;BME280;1100;52.014;8.540;2024-03-17T04:50:32;100867.78;;;2.21;100.00
2188;BME280;1100;52.014;8.540;2024-03-17T04:52:59;100865.03;;;2.21;100.00
2188;BME280;1100;52.014;8.540;2024-03-17T04:55:24;100875.63;;;2.23;100.00
2188;BME280;1100;52.014;8.540;2024-03-17T04:57:50;100874.13;;;2.26;100.00
2188;BME280;1100;52.014;8.540;2024-03-17T05:00:15;100877.16;;;2.20;100.00
2188;BME280;1100;52.014;8.540;2024-03-17T05:02:43;100873.13;;;2.14;100.00
2188;BME280;1100;52.014;8.540;2024-03-17T05:05:08;100875.78;;;2.10;100.00
2188;BME280;1100;52.014;8.540;2024-03-17T05:07:35;100875.78;;;2.10;100.00
2188;BME280;1100;52.014;8.540;2024-03-17T05:10:01;100876.94;;;2.09;100.00
2188;BME280;1100;52.014;8.540;2024-03-17T05:12:26;100876.59;;;2.11;100.00
2188;BME280;1100;52.014;8.540;2024-03-17T05:14:51;100878.69;;;2.18;100.00
2188;BME280;1100;52.014;8.540;2024-03-17T05:17:17;100880.00;;;2.24;100.00
2188;BME280;1100;52.014;8.540;2024-03-17T05:19:42;100882.06;;;2.31;100.00
2188;BME280;1100;52.014;8.540;2024-03-17T05:22:07;100878.94;;;2.32;100.00
2188;BME280;1100;52.014;8.540;2024-03-17T05:24:33;100881.78;;;2.36;100.00
2188;BME280;1100;52.014;8.540;2024-03-17T05:26:58;100884.59;;;2.40;100.00
2188;BME280;1100;52.014;8.540;2024-03-17T05:29:23;100883.44;;;2.41;100.00
2188;BME280;1100;52.014;8.540;2024-03-17T05:31:50;100881.13;;;2.43;100.00
2188;BME280;1100;52.014;8.540;2024-03-17T05:34:15;100885.38;;;2.40;100.00
2188;BME280;1100;52.014;8.540;2024-03-17T05:36:40;100880.97;;;2.35;100.00
2188;BME280;1100;52.014;8.540;2024-03-17T05:39:06;100882.56;;;2.36;100.00
2188;BME280;1100;52.014;8.540;2024-03-17T05:41:31;100885.31;;;2.36;100.00
2188;BME280;1100;52.014;8.540;2024-03-17T05:43:56;100883.44;;;2.41;100.00
2188;BME280;1100;52.014;8.540;2024-03-17T05:46:28;100881.13;;;2.43;100.00
2188;BME280;1100;52.014;8.540;2024-03-17T05:48:54;100879.97;;;2.44;100.00
2188;BME280;1100;52.014;8.540;2024-03-17T05:51:19;100879.97;;;2.44;100.00
2188;BME280;1100;52.014;8.540;2024-03-17T05:53:45;100877.94;;;2.41;100.00
2188;BME280;1100;52.014;8.540;2024-03-17T05:56:11;100876.78;;;2.42;100.00
2188;BME280;1100;52.014;8.540;2024-03-17T05:58:37;100872.44;;;2.41;100.00
2188;BME280;1100;52.014;8.540;2024-03-17T06:01:03;100877.22;;;2.44;100.00
2188;BME280;1100;52.014;8.540;2024-03-17T06:03:29;100870.19;;;2.46;100.00
2188;BME280;1100;52.014;8.540;2024-03-17T06:05:54;100869.91;;;2.52;100.00
2188;BME280;1100;52.014;8.540;2024-03-17T06:08:19;100871.56;;;2.56;100.00
2188;BME280;1100;52.014;8.540;2024-03-17T06:10:48;100863.03;;;2.61;100.00
2188;BME280;1100;52.014;8.540;2024-03-17T06:13:14;100864.69;;;2.66;100.00
2188;BME280;1100;52.014;8.540;2024-03-17T06:15:43;100860.03;;;2.70;100.00
2188;BME280;1100;52.014;8.540;2024-03-17T06:18:11;100859.66;;;2.72;100.00
2188;BME280;1100;52.014;8.540;2024-03-17T06:20:43;100852.34;;;2.80;100.00
2188;BME280;1100;52.014;8.540;2024-03-17T06:23:08;100857.59;;;2.89;100.00
2188;BME280;1100;52.014;8.540;2024-03-17T06:25:48;100856.91;;;2.95;100.00
2188;BME280;1100;52.014;8.540;2024-03-17T06:28:15;100856.25;;;3.02;100.00
2188;BME280;1100;52.014;8.540;2024-03-17T06:30:44;100856.78;;;3.11;100.00
2188;BME280;1100;52.014;8.540;2024-03-17T06:33:15;100860.06;;;3.21;100.00
2188;BME280;1100;52.014;8.540;2024-03-17T06:35:41;100858.16;;;3.25;100.00
2188;BME280;1100;52.014;8.540;2024-03-17T06:38:07;100860.91;;;3.25;100.00
2188;BME280;1100;52.014;8.540;2024-03-17T06:40:38;100868.91;;;3.34;100.00
2188;BME280;1100;52.014;8.540;2024-03-17T06:43:03;100865.81;;;3.39;100.00
2188;BME280;1100;52.014;8.540;2024-03-17T06:45:29;100865.97;;;3.50;100.00
2188;BME280;1100;52.014;8.540;2024-03-17T06:47:54;100861.31;;;3.54;100.00
2188;BME280;1100;52.014;8.540;2024-03-17T06:50:20;100859.03;;;3.60;100.00
2188;BME280;1100;52.014;8.540;2024-03-17T06:52:46;100857.09;;;3.60;100.00
2188;BME280;1100;52.014;8.540;2024-03-17T06:55:12;100863.84;;;3.67;100.00
2188;BME280;1100;52.014;8.540;2024-03-17T06:57:37;100859.25;;;3.74;100.00
2188;BME280;1100;52.014;8.540;2024-03-17T07:00:03;100862.50;;;3.84;100.00
2188;BME280;1100;52.014;8.540;2024-03-17T07:02:31;100865.75;;;3.93;100.00
2188;BME280;1100;52.014;8.540;2024-03-17T07:04:57;100864.72;;;4.05;100.00
2188;BME280;1100;52.014;8.540;2024-03-17T07:07:23;100873.56;;;4.22;100.00
2188;BME280;1100;52.014;8.540;2024-03-17T07:09:48;100870.09;;;4.29;100.00
2188;BME280;1100;52.014;8.540;2024-03-17T07:12:13;100871.75;;;4.37;100.00
2188;BME280;1100;52.014;8.540;2024-03-17T07:14:39;100863.19;;;4.46;100.00
2188;BME280;1100;52.014;8.540;2024-03-17T07:17:04;100864.09;;;4.57;100.00
2188;BME280;1100;52.014;8.540;2024-03-17T07:19:30;100868.13;;;4.67;100.00
2188;BME280;1100;52.014;8.540;2024-03-17T07:21:57;100862.72;;;4.82;100.00
2188;BME280;1100;52.014;8.540;2024-03-17T07:24:22;100866.03;;;4.98;100.00
2188;BME280;1100;52.014;8.540;2024-03-17T07:26:48;100867.72;;;5.14;100.00
2188;BME280;1100;52.014;8.540;2024-03-17T07:29:14;100864.28;;;5.32;100.00
2188;BME280;1100;52.014;8.540;2024-03-17T07:31:39;100864.94;;;5.74;100.00
2188;BME280;1100;52.014;8.540;2024-03-17T07:34:05;100860.75;;;6.06;100.00
2188;BME280;1100;52.014;8.540;2024-03-17T07:36:30;100866.97;;;5.88;100.00
2188;BME280;1100;52.014;8.540;2024-03-17T07:38:56;100859.44;;;5.81;100.00
2188;BME280;1100;52.014;8.540;2024-03-17T07:41:21;100862.56;;;5.76;100.00
2188;BME280;1100;52.014;8.540;2024-03-17T07:43:49;100862.97;;;5.78;100.00
2188;BME280;1100;52.014;8.540;2024-03-17T07:46:15;100861.78;;;5.72;100.00
2188;BME280;1100;52.014;8.540;2024-03-17T07:48:41;100857.81;;;5.73;100.00
2188;BME280;1100;52.014;8.540;2024-03-17T07:51:14;100861.41;;;5.77;100.00
2188;BME280;1100;52.014;8.540;2024-03-17T07:53:41;100849.22;;;5.85;100.00
2188;BME280;1100;52.014;8.540;2024-03-17T07:56:08;100855.59;;;6.01;100.00
2188;BME280;1100;52.014;8.540;2024-03-17T07:58:38;100856.44;;;6.16;100.00
2188;BME280;1100;52.014;8.540;2024-03-17T08:01:09;100848.59;;;6.29;100.00
2188;BME280;1100;52.014;8.540;2024-03-17T08:03:39;100854.94;;;6.44;100.00
2188;BME280;1100;52.014;8.540;2024-03-17T08:06:06;100857.34;;;6.60;100.00
2188;BME280;1100;52.014;8.540;2024-03-17T08:08:32;100855.41;;;6.82;100.00
2188;BME280;1100;52.014;8.540;2024-03-17T08:10:58;100849.47;;;6.95;100.00
2188;BME280;1100;52.014;8.540;2024-03-17T08:13:24;100847.88;;;7.08;100.00
2188;BME280;1100;52.014;8.540;2024-03-17T08:15:58;100842.72;;;7.25;100.00
2188;BME280;1100;52.014;8.540;2024-03-17T08:18:23;100840.72;;;7.40;100.00
2188;BME280;1100;52.014;8.540;2024-03-17T08:20:49;100843.81;;;7.57;100.00
2188;BME280;1100;52.014;8.540;2024-03-17T08:23:14;100846.13;;;7.80;100.00
2188;BME280;1100;52.014;8.540;2024-03-17T08:25:40;100844.84;;;8.03;100.00
2188;BME280;1100;52.014;8.540;2024-03-17T08:28:06;100846.28;;;8.30;100.00
2188;BME280;1100;52.014;8.540;2024-03-17T08:30:32;100855.16;;;8.70;100.00
2188;BME280;1100;52.014;8.540;2024-03-17T08:32:58;100852.34;;;9.24;100.00
2188;BME280;1100;52.014;8.540;2024-03-17T08:35:23;100847.94;;;9.65;100.00
2188;BME280;1100;52.014;8.540;2024-03-17T08:37:49;100834.63;;;10.15;100.00
2188;BME280;1100;52.014;8.540;2024-03-17T08:40:15;100853.53;;;10.55;100.00
2188;BME280;1100;52.014;8.540;2024-03-17T08:42:41;100854.41;;;10.48;100.00
2188;BME280;1100;52.014;8.540;2024-03-17T08:45:06;100856.00;;;10.49;100.00
2188;BME280;1100;52.014;8.540;2024-03-17T08:47:33;100851.69;;;10.72;100.00
2188;BME280;1100;52.014;8.540;2024-03-17T08:49:58;100840.44;;;11.03;100.00
2188;BME280;1100;52.014;8.540;2024-03-17T08:52:29;100848.72;;;11.31;100.00
2188;BME280;1100;52.014;8.540;2024-03-17T08:54:54;100851.06;;;11.32;100.00
2188;BME280;1100;52.014;8.540;2024-03-17T08:57:20;100848.97;;;11.61;100.00
2188;BME280;1100;52.014;8.540;2024-03-17T08:59:48;100855.81;;;11.76;100.00
2188;BME280;1100;52.014;8.540;2024-03-17T09:02:14;100853.16;;;11.69;100.00
2188;BME280;1100;52.014;8.540;2024-03-17T09:04:42;100859.03;;;11.54;100.00
2188;BME280;1100;52.014;8.540;2024-03-17T09:07:08;100853.72;;;11.60;100.00
2188;BME280;1100;52.014;8.540;2024-03-17T09:09:33;100857.16;;;11.68;100.00
2188;BME280;1100;52.014;8.540;2024-03-17T09:11:58;100862.16;;;11.77;100.00
2188;BME280;1100;52.014;8.540;2024-03-17T09:14:24;100846.22;;;11.57;100.00
2188;BME280;1100;52.014;8.540;2024-03-17T09:16:50;100853.72;;;11.40;100.00
2188;BME280;1100;52.014;8.540;2024-03-17T09:19:15;100849.22;;;11.46;100.00
2188;BME280;1100;52.014;8.540;2024-03-17T09:21:41;100845.00;;;11.78;100.00
2188;BME280;1100;52.014;8.540;2024-03-17T09:24:06;100846.22;;;12.18;100.00
2188;BME280;1100;52.014;8.540;2024-03-17T09:26:35;100841.31;;;12.42;100.00
2188;BME280;1100;52.014;8.540;2024-03-17T09:29:01;100851.84;;;12.51;100.00
2188;BME280;1100;52.014;8.540;2024-03-17T09:31:26;100845.56;;;12.97;100.00
2188;BME280;1100;52.014;8.540;2024-03-17T09:33:51;100846.72;;;13.46;100.00
2188;BME280;1100;52.014;8.540;2024-03-17T09:36:17;100840.25;;;13.92;100.00
2188;BME280;1100;52.014;8.540;2024-03-17T09:38:43;100844.19;;;14.20;100.00
2188;BME280;1100;52.014;8.540;2024-03-17T09:41:20;100848.44;;;14.12;100.00
2188;BME280;1100;52.014;8.540;2024-03-17T09:43:46;100846.09;;;14.24;100.00
2188;BME280;1100;52.014;8.540;2024-03-17T09:46:13;100841.28;;;14.11;100.00
2188;BME280;1100;52.014;8.540;2024-03-17T09:48:39;100846.28;;;13.77;100.00
2188;BME280;1100;52.014;8.540;2024-03-17T09:51:05;100847.91;;;13.62;100.00
2188;BME280;1100;52.014;8.540;2024-03-17T09:53:32;100840.56;;;13.21;100.00
2188;BME280;1100;52.014;8.540;2024-03-17T09:56:01;100843.53;;;13.14;100.00
2188;BME280;1100;52.014;8.540;2024-03-17T09:58:28;100847.75;;;13.36;100.00
2188;BME280;1100;52.014;8.540;2024-03-17T10:00:54;100847.47;;;13.63;100.00
2188;BME280;1100;52.014;8.540;2024-03-17T10:06:08;100842.59;;;13.93;100.00
2188;BME280;1100;52.014;8.540;2024-03-17T10:08:49;100844.53;;;14.23;100.00
2188;BME280;1100;52.014;8.540;2024-03-17T10:11:17;100834.69;;;14.18;100.00
2188;BME280;1100;52.014;8.540;2024-03-17T10:13:47;100829.19;;;14.01;100.00
2188;BME280;1100;52.014;8.540;2024-03-17T10:16:27;100828.88;;;14.38;100.00
2188;BME280;1100;52.014;8.540;2024-03-17T10:19:19;100829.16;;;14.92;100.00
2188;BME280;1100;52.014;8.540;2024-03-17T10:21:46;100830.69;;;15.06;100.00
2188;BME280;1100;52.014;8.540;2024-03-17T10:26:50;100818.28;;;15.75;100.00
2188;BME280;1100;52.014;8.540;2024-03-17T10:29:28;100818.50;;;15.90;100.00
2188;BME280;1100;52.014;8.540;2024-03-17T10:31:59;100812.59;;;16.19;100.00
2188;BME280;1100;52.014;8.540;2024-03-17T10:34:27;100810.63;;;16.29;100.00
2188;BME280;1100;52.014;8.540;2024-03-17T10:37:09;100799.28;;;16.33;100.00
2188;BME280;1100;52.014;8.540;2024-03-17T10:39:39;100804.94;;;16.52;100.00
2188;BME280;1100;52.014;8.540;2024-03-17T10:42:06;100791.00;;;16.39;100.00
2188;BME280;1100;52.014;8.540;2024-03-17T10:44:39;100806.56;;;16.30;100.00
2188;BME280;1100;52.014;8.540;2024-03-17T10:47:06;100807.13;;;16.06;100.00
2188;BME280;1100;52.014;8.540;2024-03-17T10:49:36;100807.25;;;15.80;100.00
2188;BME280;1100;52.014;8.540;2024-03-17T10:54:30;100806.81;;;15.15;100.00
2188;BME280;1100;52.014;8.540;2024-03-17T10:56:57;100811.22;;;15.03;100.00
2188;BME280;1100;52.014;8.540;2024-03-17T10:59:42;100810.97;;;15.10;100.00
2188;BME280;1100;52.014;8.540;2024-03-17T11:02:32;100811.78;;;15.55;100.00
2188;BME280;1100;52.014;8.540;2024-03-17T11:05:21;100809.66;;;15.91;100.00
2188;BME280;1100;52.014;8.540;2024-03-17T11:07:49;100817.56;;;16.15;100.00
2188;BME280;1100;52.014;8.540;2024-03-17T11:10:23;100816.53;;;16.22;100.00
2188;BME280;1100;52.014;8.540;2024-03-17T11:12:56;100819.56;;;15.83;100.00
2188;BME280;1100;52.014;8.540;2024-03-17T11:17:53;100825.31;;;15.57;100.00
2188;BME280;1100;52.014;8.540;2024-03-17T11:20:22;100816.78;;;15.61;98.95
2188;BME280;1100;52.014;8.540;2024-03-17T11:22:52;100816.22;;;15.43;100.00
2188;BME280;1100;52.014;8.540;2024-03-17T11:38:57;100783.66;;;16.32;96.82
2188;BME280;1100;52.014;8.540;2024-03-17T11:41:38;100791.69;;;16.62;99.04
2188;BME280;1100;52.014;8.540;2024-03-17T11:47:00;100798.75;;;17.04;96.92
2188;BME280;1100;52.014;8.540;2024-03-17T11:49:33;100792.03;;;16.83;94.17
2188;BME280;1100;52.014;8.540;2024-03-17T11:52:00;100788.13;;;16.71;91.87
2188;BME280;1100;52.014;8.540;2024-03-17T11:54:30;100782.03;;;16.63;94.82
2188;BME280;1100;52.014;8.540;2024-03-17T11:57:07;100783.91;;;16.75;96.93
2188;BME280;1100;52.014;8.540;2024-03-17T11:59:33;100782.66;;;16.67;96.13
2188;BME280;1100;52.014;8.540;2024-03-17T12:01:58;100772.25;;;16.17;93.38
2188;BME280;1100;52.014;8.540;2024-03-17T12:04:24;100778.91;;;15.78;91.91
2188;BME280;1100;52.014;8.540;2024-03-17T12:06:52;100773.75;;;15.45;86.13
2188;BME280;1100;52.014;8.540;2024-03-17T12:09:21;100769.53;;;15.05;84.57
2188;BME280;1100;52.014;8.540;2024-03-17T12:12:01;100771.75;;;15.55;90.49
2188;BME280;1100;52.014;8.540;2024-03-17T12:14:27;100768.69;;;15.94;90.59
2188;BME280;1100;52.014;8.540;2024-03-17T12:19:20;100766.56;;;14.99;85.59
2188;BME280;1100;52.014;8.540;2024-03-17T12:21:48;100760.84;;;15.03;89.36
2188;BME280;1100;52.014;8.540;2024-03-17T12:24:16;100767.81;;;14.98;78.92
2188;BME280;1100;52.014;8.540;2024-03-17T12:26:43;100772.50;;;14.40;80.73
2188;BME280;1100;52.014;8.540;2024-03-17T12:29:34;100756.66;;;14.72;85.60
2188;BME280;1100;52.014;8.540;2024-03-17T12:32:16;100759.84;;;14.97;86.82
2188;BME280;1100;52.014;8.540;2024-03-17T12:34:45;100760.75;;;14.93;85.77
2188;BME280;1100;52.014;8.540;2024-03-17T12:37:19;100763.59;;;14.67;84.26
2188;BME280;1100;52.014;8.540;2024-03-17T12:39:46;100755.38;;;14.25;85.58
2188;BME280;1100;52.014;8.540;2024-03-17T12:42:16;100751.72;;;14.02;87.04
2188;BME280;1100;52.014;8.540;2024-03-17T12:44:55;100756.63;;;13.85;87.56
2188;BME280;1100;52.014;8.540;2024-03-17T12:47:25;100756.72;;;13.81;88.33
2188;BME280;1100;52.014;8.540;2024-03-17T12:49:51;100767.81;;;13.42;77.31
2188;BME280;1100;52.014;8.540;2024-03-17T12:52:28;100762.34;;;13.08;75.71
2188;BME280;1100;52.014;8.540;2024-03-17T12:57:49;100761.38;;;13.15;76.24
2188;BME280;1100;52.014;8.540;2024-03-17T13:00:33;100765.41;;;12.98;76.56
2188;BME280;1100;52.014;8.540;2024-03-17T13:03:06;100760.31;;;12.79;77.73
2188;BME280;1100;52.014;8.540;2024-03-17T13:05:35;100756.69;;;12.66;75.00
2188;BME280;1100;52.014;8.540;2024-03-17T13:08:01;100751.44;;;12.68;80.32
2188;BME280;1100;52.014;8.540;2024-03-17T13:10:27;100754.41;;;12.61;76.73
2188;BME280;1100;52.014;8.540;2024-03-17T13:13:03;100753.09;;;12.65;77.93
2188;BME280;1100;52.014;8.540;2024-03-17T13:15:29;100746.25;;;12.53;71.82
2188;BME280;1100;52.014;8.540;2024-03-17T13:18:00;100749.31;;;12.42;72.83
2188;BME280;1100;52.014;8.540;2024-03-17T13:20:26;100745.72;;;12.42;69.91
2188;BME280;1100;52.014;8.540;2024-03-17T13:22:51;100743.88;;;12.52;74.90
2188;BME280;1100;52.014;8.540;2024-03-17T13:25:18;100731.22;;;12.64;75.99
2188;BME280;1100;52.014;8.540;2024-03-17T13:27:46;100725.28;;;12.62;76.53
2188;BME280;1100;52.014;8.540;2024-03-17T13:30:12;100720.06;;;12.64;77.31
2188;BME280;1100;52.014;8.540;2024-03-17T13:32:38;100711.34;;;12.62;78.40
2188;BME280;1100;52.014;8.540;2024-03-17T13:35:06;100714.19;;;12.45;76.54
2188;BME280;1100;52.014;8.540;2024-03-17T13:37:33;100715.06;;;12.42;76.20
2188;BME280;1100;52.014;8.540;2024-03-17T13:39:59;100714.09;;;12.49;77.66
2188;BME280;1100;52.014;8.540;2024-03-17T13:42:27;100703.09;;;12.58;77.48